Terminal Aerodrome Forecast
Issued by NWS

Home | Current Version | Previous Version | Text Only | Print | Product List | Glossary On
Versions: 1 2 3 4 5 6 7 8 9 10 11 12 13 14 15 16 17
000
FTUS43 KAPX 160300 AAB
TAFMBL
TAF AMD
KMBL 160322Z 1603/1624 00000KT 1/2SM FG OVC001
      TEMPO 1608/1612 1SM BR BKN002
     FM161200 00000KT P6SM SCT040
     FM161400 27009KT P6SM SCT150
      AMD LTD TO CLD VIS AND WIND=

USA.gov is the U.S. government's official web portal to all federal, state and local government web resources and services.